createdAt,value
2023-04-21T00:00:40.964Z,101741.44
2023-04-21T00:03:44.232Z,101733.88
2023-04-21T00:06:48.474Z,101734.75
2023-04-21T00:09:51.309Z,101734.97
2023-04-21T00:12:53.941Z,101731.00
2023-04-21T00:15:56.636Z,101729.69
2023-04-21T00:18:59.361Z,101724.28
2023-04-21T00:22:04.407Z,101723.31
2023-04-21T00:25:08.220Z,101725.22
2023-04-21T00:28:10.897Z,101731.97
2023-04-21T00:31:13.553Z,101730.38
2023-04-21T00:34:16.308Z,101729.19
2023-04-21T00:37:20.404Z,101726.41
2023-04-21T00:40:23.173Z,101718.38
2023-04-21T00:43:26.367Z,101720.97
2023-04-21T00:46:29.428Z,101715.72
2023-04-21T00:49:32.395Z,101715.69
2023-04-21T00:52:36.718Z,101717.53
2023-04-21T00:55:39.428Z,101726.41
2023-04-21T00:58:43.656Z,101714.69
2023-04-21T01:01:46.374Z,101712.94
2023-04-21T01:04:49.628Z,101714.09
2023-04-21T01:07:54.006Z,101711.19
2023-04-21T01:10:56.618Z,101708.59
2023-04-21T01:13:59.266Z,101712.03
2023-04-21T01:17:03.757Z,101707.97
2023-04-21T01:20:10.657Z,101706.13
2023-04-21T01:23:14.684Z,101706.16
2023-04-21T01:26:19.080Z,101703.38
2023-04-21T01:29:21.835Z,101708.13
2023-04-21T01:32:27.376Z,101709.84
2023-04-21T01:35:30.451Z,101700.44
2023-04-21T01:38:34.546Z,101700.94
2023-04-21T01:41:37.251Z,101695.44
2023-04-21T01:44:40.695Z,101710.69
2023-04-21T01:47:43.367Z,101704.41
2023-04-21T01:50:46.038Z,101697.44
2023-04-21T01:53:50.006Z,101691.38
2023-04-21T01:56:52.715Z,101688.53
2023-04-21T01:59:55.584Z,101693.72
2023-04-21T02:02:58.440Z,101686.81
2023-04-21T02:06:01.175Z,101689.66
2023-04-21T02:09:05.320Z,101680.81
2023-04-21T02:12:08.262Z,101686.38
2023-04-21T02:15:12.008Z,101681.88
2023-04-21T02:18:14.927Z,101680.03
2023-04-21T02:21:17.696Z,101676.59
2023-04-21T02:24:21.672Z,101676.78
2023-04-21T02:27:24.332Z,101671.47
2023-04-21T02:30:26.965Z,101675.19
2023-04-21T02:33:29.677Z,101674.19
2023-04-21T02:36:32.457Z,101675.81
2023-04-21T02:39:36.384Z,101676.38
2023-04-21T02:42:39.007Z,101672.91
2023-04-21T02:45:41.653Z,101674.03
2023-04-21T02:48:44.300Z,101684.69
2023-04-21T02:51:46.939Z,101672.88
2023-04-21T02:54:50.921Z,101680.00
2023-04-21T02:57:53.571Z,101679.03
2023-04-21T03:00:56.235Z,101671.00
2023-04-21T03:03:58.892Z,101672.03
2023-04-21T03:07:01.650Z,101669.34
2023-04-21T03:10:06.355Z,101669.59
2023-04-21T03:13:09.007Z,101667.00
2023-04-21T03:16:11.686Z,101660.41
2023-04-21T03:19:14.315Z,101665.06
2023-04-21T03:22:16.981Z,101667.72
2023-04-21T03:25:21.578Z,101663.09
2023-04-21T03:28:24.195Z,101660.75
2023-04-21T03:31:26.878Z,101653.75
2023-04-21T03:34:29.525Z,101656.22
2023-04-21T03:37:32.148Z,101654.34
2023-04-21T03:40:36.143Z,101656.13
2023-04-21T03:43:38.925Z,101656.19
2023-04-21T03:46:41.535Z,101652.53
2023-04-21T03:49:44.247Z,101657.94
2023-04-21T03:52:46.866Z,101656.31
2023-04-21T03:55:52.450Z,101659.03
2023-04-21T03:58:55.189Z,101654.66
2023-04-21T04:01:57.847Z,101664.84
2023-04-21T04:05:00.560Z,101658.75
2023-04-21T04:08:03.275Z,101660.72
2023-04-21T04:11:07.334Z,101648.44
2023-04-21T04:14:10.005Z,101651.38
2023-04-21T04:17:12.635Z,101645.31
2023-04-21T04:20:15.267Z,101644.81
2023-04-21T04:23:18.008Z,101647.66
2023-04-21T04:26:24.768Z,101651.00
2023-04-21T04:29:27.860Z,101644.09
2023-04-21T04:32:31.323Z,101647.56
2023-04-21T04:35:34.949Z,101648.94
2023-04-21T04:38:38.145Z,101654.38
2023-04-21T04:41:42.430Z,101653.28
2023-04-21T04:44:45.714Z,101655.16
2023-04-21T04:47:48.418Z,101659.41
2023-04-21T04:50:51.172Z,101659.56
2023-04-21T04:53:53.826Z,101663.16
2023-04-21T04:56:58.657Z,101654.25
2023-04-21T05:00:01.297Z,101657.00
2023-04-21T05:03:04.155Z,101646.03
2023-04-21T05:06:07.422Z,101645.41
2023-04-21T05:09:10.646Z,101652.78
2023-04-21T05:12:14.664Z,101655.97
2023-04-21T05:15:18.832Z,101649.84
2023-04-21T05:18:21.475Z,101653.03
2023-04-21T05:21:27.419Z,101643.66
2023-04-21T05:24:30.184Z,101644.16
2023-04-21T05:27:34.914Z,101648.47
2023-04-21T05:30:37.573Z,101645.72
2023-04-21T05:33:40.252Z,101655.97
2023-04-21T05:36:43.059Z,101660.94
2023-04-21T05:39:46.828Z,101659.31
2023-04-21T05:42:50.851Z,101652.16
2023-04-21T05:45:53.597Z,101661.75
2023-04-21T05:48:56.254Z,101659.63
2023-04-21T05:51:58.893Z,101653.69
2023-04-21T05:55:02.141Z,101656.94
2023-04-21T05:58:06.197Z,101660.34
2023-04-21T06:01:09.312Z,101661.69
2023-04-21T06:04:12.151Z,101657.19
2023-04-21T06:07:15.958Z,101655.13
2023-04-21T06:10:21.068Z,101658.44
2023-04-21T06:13:27.119Z,101654.47
2023-04-21T06:16:32.398Z,101658.41
2023-04-21T06:19:38.310Z,101655.84
2023-04-21T06:22:41.036Z,101649.09
2023-04-21T06:25:43.615Z,101660.41
2023-04-21T06:28:47.590Z,101656.38
2023-04-21T06:31:50.336Z,101659.09
2023-04-21T06:34:53.021Z,101664.75
2023-04-21T06:37:55.706Z,101656.97
2023-04-21T06:40:58.511Z,101659.19
2023-04-21T06:44:02.518Z,101646.50
2023-04-21T06:47:05.418Z,101649.50
2023-04-21T06:50:09.110Z,101645.84
2023-04-21T06:53:21.672Z,101648.44
2023-04-21T06:56:24.351Z,101656.56
2023-04-21T06:59:28.274Z,101648.88
2023-04-21T07:02:31.111Z,101644.69
2023-04-21T07:05:33.809Z,101640.81
2023-04-21T07:08:36.407Z,101640.97
2023-04-21T07:11:39.031Z,101636.84
2023-04-21T07:14:42.974Z,101629.22
2023-04-21T07:17:45.563Z,101626.47
2023-04-21T07:20:48.265Z,101635.88
2023-04-21T07:23:51.246Z,101632.53
2023-04-21T07:26:53.833Z,101621.75
2023-04-21T07:29:57.740Z,101627.53
2023-04-21T07:33:00.681Z,101619.00
2023-04-21T07:36:03.429Z,101617.94
2023-04-21T07:39:06.297Z,101620.09
2023-04-21T07:42:09.589Z,101621.22
2023-04-21T07:45:13.868Z,101617.59
2023-04-21T07:48:16.552Z,101611.34
2023-04-21T07:51:19.515Z,101615.50
2023-04-21T07:54:22.116Z,101611.75
2023-04-21T07:57:25.197Z,101614.91
2023-04-21T08:00:29.126Z,101613.22
2023-04-21T08:03:31.833Z,101601.69
2023-04-21T08:06:34.740Z,101612.47
2023-04-21T08:09:37.420Z,101604.78
2023-04-21T08:12:40.000Z,101608.72
2023-04-21T08:15:44.070Z,101600.56
2023-04-21T08:18:46.709Z,101603.66
2023-04-21T08:21:49.328Z,101598.81
2023-04-21T08:24:51.965Z,101596.91
2023-04-21T08:27:54.640Z,101592.66
2023-04-21T08:31:00.349Z,101589.66
2023-04-21T08:34:03.205Z,101591.16
2023-04-21T08:37:05.888Z,101587.44
2023-04-21T08:40:09.604Z,101586.47
2023-04-21T08:43:12.919Z,101577.94
2023-04-21T08:46:17.572Z,101586.72
2023-04-21T08:49:22.034Z,101586.22
2023-04-21T08:52:24.813Z,101583.88
2023-04-21T08:55:30.208Z,101576.19
2023-04-21T08:58:33.164Z,101571.84
2023-04-21T09:02:10.682Z,101580.09
2023-04-21T09:05:23.551Z,101574.91
2023-04-21T09:08:27.952Z,101578.72
2023-04-21T09:11:34.464Z,101583.72
2023-04-21T09:14:37.052Z,101579.06
2023-04-21T09:17:41.029Z,101582.75
2023-04-21T09:20:45.306Z,101582.75
2023-04-21T09:23:49.401Z,101578.72
2023-04-21T09:26:53.164Z,101574.59
2023-04-21T09:29:56.887Z,101569.44
2023-04-21T09:33:00.957Z,101566.47
2023-04-21T09:36:04.175Z,101567.19
2023-04-21T09:42:12.900Z,101562.22
2023-04-21T09:45:32.975Z,101547.63
2023-04-21T09:48:44.662Z,101550.44
2023-04-21T09:55:00.534Z,101540.06
2023-04-21T09:58:05.341Z,101541.22
2023-04-21T10:01:09.500Z,101545.91
2023-04-21T10:04:14.480Z,101534.94
2023-04-21T10:07:17.308Z,101530.91
2023-04-21T10:10:24.601Z,101526.78
2023-04-21T10:13:27.774Z,101533.53
2023-04-21T10:16:30.438Z,101525.53
2023-04-21T10:19:39.669Z,101524.94
2023-04-21T10:22:43.826Z,101540.19
2023-04-21T10:25:50.068Z,101515.59
2023-04-21T10:28:59.333Z,101513.84
2023-04-21T10:32:02.145Z,101509.44
2023-04-21T10:35:10.431Z,101507.31
2023-04-21T10:38:36.252Z,101502.38
2023-04-21T10:41:39.096Z,101499.09
2023-04-21T10:44:43.005Z,101491.31
2023-04-21T10:47:49.330Z,101487.19
2023-04-21T10:50:53.450Z,101479.59
2023-04-21T10:53:57.428Z,101476.69
2023-04-21T10:57:01.564Z,101470.91
2023-04-21T11:00:06.982Z,101467.81
2023-04-21T11:03:09.979Z,101465.63
2023-04-21T11:06:18.685Z,101462.50
2023-04-21T11:09:21.393Z,101463.34
2023-04-21T11:12:29.189Z,101460.50
2023-04-21T11:15:32.060Z,101453.31
2023-04-21T11:18:42.363Z,101445.78
2023-04-21T11:21:49.738Z,101456.47
2023-04-21T11:24:55.273Z,101453.72
2023-04-21T11:28:00.000Z,101450.16
2023-04-21T11:31:02.664Z,101437.34
2023-04-21T11:34:07.351Z,101438.69
2023-04-21T11:37:15.135Z,101434.56
2023-04-21T11:40:17.719Z,101430.59
2023-04-21T11:43:22.249Z,101428.41
2023-04-21T11:46:28.257Z,101413.69
2023-04-21T11:49:32.272Z,101422.59
2023-04-21T11:52:38.203Z,101405.84
2023-04-21T11:55:43.585Z,101399.50
2023-04-21T11:58:46.918Z,101402.88
2023-04-21T12:01:50.778Z,101392.22
2023-04-21T12:05:01.221Z,101392.19
2023-04-21T12:08:06.230Z,101389.91
2023-04-21T12:11:08.926Z,101392.81
2023-04-21T12:14:11.615Z,101383.66
2023-04-21T12:17:14.310Z,101385.88
2023-04-21T12:20:18.263Z,101373.22
2023-04-21T12:23:22.232Z,101373.19
2023-04-21T12:26:24.840Z,101377.72
2023-04-21T12:29:27.420Z,101371.28
2023-04-21T12:32:30.028Z,101371.22
2023-04-21T12:35:33.415Z,101359.13
2023-04-21T12:38:37.734Z,101370.31
2023-04-21T12:41:40.566Z,101364.00
2023-04-21T12:44:43.130Z,101350.72
2023-04-21T12:47:47.038Z,101343.66
2023-04-21T12:50:49.815Z,101345.41
2023-04-21T12:53:53.798Z,101344.94
2023-04-21T12:56:56.410Z,101330.91
2023-04-21T12:59:59.016Z,101348.81
2023-04-21T13:03:01.735Z,101335.97
2023-04-21T13:06:04.670Z,101322.28
2023-04-21T13:09:08.674Z,101321.56
2023-04-21T13:12:11.562Z,101323.34
2023-04-21T13:15:14.168Z,101316.38
2023-04-21T13:18:16.817Z,101304.06
2023-04-21T13:21:19.428Z,101309.31
2023-04-21T13:24:23.564Z,101321.88
2023-04-21T13:27:26.200Z,101308.63
2023-04-21T13:30:28.848Z,101305.97
2023-04-21T13:33:34.882Z,101310.00
2023-04-21T13:36:37.581Z,101284.03
2023-04-21T13:39:41.600Z,101295.72
2023-04-21T13:42:44.686Z,101288.81
2023-04-21T13:45:49.772Z,101281.13
2023-04-21T13:48:52.425Z,101275.13
2023-04-21T13:51:54.985Z,101267.78
2023-04-21T13:54:59.087Z,101274.81
2023-04-21T13:58:01.682Z,101258.94
2023-04-21T14:01:04.752Z,101258.63
2023-04-21T14:04:07.911Z,101252.16
2023-04-21T14:07:11.017Z,101253.97
2023-04-21T14:10:14.955Z,101248.72
2023-04-21T14:16:26.045Z,101235.97
2023-04-21T14:19:28.661Z,101235.25
2023-04-21T14:22:31.228Z,101244.56
2023-04-21T14:25:35.269Z,101232.44
2023-04-21T14:28:37.899Z,101226.59
2023-04-21T14:31:40.522Z,101226.59
2023-04-21T14:34:43.114Z,101225.25
2023-04-21T14:37:45.736Z,101214.66
2023-04-21T14:40:51.329Z,101215.28
2023-04-21T14:43:56.421Z,101209.38
2023-04-21T14:47:09.325Z,101208.69
2023-04-21T14:50:13.227Z,101195.72
2023-04-21T14:53:16.005Z,101201.09
2023-04-21T14:56:20.537Z,101199.06
2023-04-21T14:59:23.886Z,101181.53
2023-04-21T15:02:26.677Z,101182.84
2023-04-21T15:05:29.465Z,101169.00
2023-04-21T15:08:32.093Z,101170.72
2023-04-21T15:11:36.168Z,101171.94
2023-04-21T15:14:39.822Z,101164.47
2023-04-21T15:17:42.462Z,101157.00
2023-04-21T15:20:46.027Z,101152.97
2023-04-21T15:23:48.957Z,101157.22
2023-04-21T15:26:53.090Z,101152.94
2023-04-21T15:29:56.039Z,101143.00
2023-04-21T15:32:58.712Z,101137.22
2023-04-21T15:36:01.380Z,101127.78
2023-04-21T15:39:04.092Z,101126.19
2023-04-21T15:42:09.493Z,101132.44
2023-04-21T15:45:12.529Z,101134.16
2023-04-21T15:48:16.719Z,101130.84
2023-04-21T15:51:20.401Z,101124.81
2023-04-21T15:54:23.435Z,101130.22
2023-04-21T15:57:28.339Z,101122.38
2023-04-21T16:00:30.953Z,101116.59
2023-04-21T16:03:33.968Z,101117.47
2023-04-21T16:06:36.894Z,101119.44
2023-04-21T16:09:39.562Z,101115.22
2023-04-21T16:12:44.543Z,101115.22
2023-04-21T16:15:47.503Z,101118.56
2023-04-21T16:18:50.182Z,101100.22
2023-04-21T16:21:52.894Z,101107.38
2023-04-21T16:24:55.955Z,101101.09
2023-04-21T16:28:00.329Z,101093.19
2023-04-21T16:31:03.209Z,101090.63
2023-04-21T16:34:05.981Z,101088.03
2023-04-21T16:37:08.949Z,101094.44
2023-04-21T16:40:12.747Z,101093.59
2023-04-21T16:43:16.984Z,101078.69
2023-04-21T16:46:19.582Z,101080.31
2023-04-21T16:49:22.238Z,101081.91
2023-04-21T16:52:25.542Z,101080.06
2023-04-21T16:55:29.081Z,101065.56
2023-04-21T16:58:32.999Z,101068.72
2023-04-21T17:01:35.820Z,101069.66
2023-04-21T17:04:40.043Z,101076.78
2023-04-21T17:07:44.504Z,101072.16
2023-04-21T17:10:47.132Z,101070.66
2023-04-21T17:13:51.076Z,101070.13
2023-04-21T17:16:54.575Z,101067.28
2023-04-21T17:19:57.245Z,101066.03
2023-04-21T17:22:59.874Z,101072.38
2023-04-21T17:26:03.639Z,101067.03
2023-04-21T17:29:08.723Z,101065.63
2023-04-21T17:32:11.433Z,101060.78
2023-04-21T17:35:14.060Z,101070.56
2023-04-21T17:38:16.754Z,101061.91
2023-04-21T17:41:19.964Z,101065.09
2023-04-21T17:44:23.869Z,101056.06
2023-04-21T17:47:26.770Z,101059.72
2023-04-21T17:50:31.108Z,101059.19
2023-04-21T17:53:33.785Z,101055.84
2023-04-21T17:56:36.563Z,101064.22
2023-04-21T17:59:40.644Z,101063.97
2023-04-21T18:02:43.268Z,101064.63
2023-04-21T18:05:46.097Z,101062.38
2023-04-21T18:08:48.725Z,101070.28
2023-04-21T18:11:51.322Z,101076.22
2023-04-21T18:14:55.557Z,101062.44
2023-04-21T18:17:58.213Z,101074.84
2023-04-21T18:21:00.845Z,101080.97
2023-04-21T18:24:04.106Z,101073.63
2023-04-21T18:27:07.179Z,101074.75
2023-04-21T18:30:11.624Z,101080.81
2023-04-21T18:33:14.351Z,101072.91
2023-04-21T18:36:17.311Z,101076.06
2023-04-21T18:39:19.952Z,101077.66
2023-04-21T18:42:22.573Z,101077.66
2023-04-21T18:45:26.549Z,101082.25
2023-04-21T18:48:29.177Z,101082.88
2023-04-21T18:51:32.403Z,101073.03
2023-04-21T18:54:35.308Z,101072.44
2023-04-21T18:57:38.113Z,101077.84
2023-04-21T19:00:42.175Z,101081.88
2023-04-21T19:03:45.783Z,101078.38
2023-04-21T19:06:49.385Z,101075.28
2023-04-21T19:09:53.597Z,101076.63
2023-04-21T19:12:56.312Z,101073.94
2023-04-21T19:16:01.326Z,101077.56
2023-04-21T19:19:04.805Z,101084.78
2023-04-21T19:22:07.406Z,101083.94
2023-04-21T19:25:12.315Z,101079.31
2023-04-21T19:28:14.883Z,101083.34
2023-04-21T19:31:21.569Z,101085.34
2023-04-21T19:34:24.293Z,101071.28
2023-04-21T19:37:28.004Z,101075.59
2023-04-21T19:40:30.677Z,101077.81
2023-04-21T19:43:33.350Z,101082.31
2023-04-21T19:46:37.416Z,101073.16
2023-04-21T19:49:40.311Z,101076.78
2023-04-21T19:52:43.029Z,101078.19
2023-04-21T19:55:46.400Z,101077.75
2023-04-21T19:58:49.020Z,101069.06
2023-04-21T20:01:52.964Z,101069.47
2023-04-21T20:04:55.798Z,101075.81
2023-04-21T20:07:59.585Z,101071.22
2023-04-21T20:11:02.201Z,101065.88
2023-04-21T20:14:04.807Z,101072.13
2023-04-21T20:17:08.760Z,101068.38
2023-04-21T20:20:13.081Z,101070.84
2023-04-21T20:23:16.018Z,101062.59
2023-04-21T20:26:18.729Z,101064.06
2023-04-21T20:29:21.488Z,101067.59
2023-04-21T20:32:25.599Z,101064.50
2023-04-21T20:35:30.403Z,101061.53
2023-04-21T20:38:34.440Z,101067.97
2023-04-21T20:41:37.023Z,101065.13
2023-04-21T20:44:41.204Z,101071.19
2023-04-21T20:47:45.313Z,101069.38
2023-04-21T20:50:49.851Z,101072.88
2023-04-21T20:53:53.916Z,101071.72
2023-04-21T20:56:56.585Z,101063.91
2023-04-21T20:59:59.430Z,101066.56
2023-04-21T21:03:04.531Z,101062.03
2023-04-21T21:06:07.462Z,101065.72
2023-04-21T21:09:10.039Z,101051.19
2023-04-21T21:12:12.639Z,101061.06
2023-04-21T21:15:15.424Z,101063.28
2023-04-21T21:18:19.382Z,101069.69
2023-04-21T21:21:21.965Z,101065.16
2023-04-21T21:24:26.190Z,101063.69
2023-04-21T21:27:28.882Z,101062.25
2023-04-21T21:30:31.493Z,101063.41
2023-04-21T21:33:35.454Z,101067.94
2023-04-21T21:36:38.305Z,101056.84
2023-04-21T21:39:41.056Z,101072.50
2023-04-21T21:42:43.680Z,101058.69
2023-04-21T21:45:46.498Z,101066.84
2023-04-21T21:48:51.084Z,101071.69
2023-04-21T21:51:54.572Z,101063.41
2023-04-21T21:54:58.299Z,101063.69
2023-04-21T21:58:03.436Z,101063.81
2023-04-21T22:01:06.573Z,101054.03
2023-04-21T22:04:10.674Z,101059.22
2023-04-21T22:07:13.922Z,101065.28
2023-04-21T22:10:16.510Z,101055.91
2023-04-21T22:13:19.109Z,101058.66
2023-04-21T22:16:22.271Z,101055.34
2023-04-21T22:19:26.402Z,101056.72
2023-04-21T22:22:29.291Z,101055.13
2023-04-21T22:25:31.918Z,101055.03
2023-04-21T22:28:34.582Z,101045.03
2023-04-21T22:31:37.903Z,101046.19
2023-04-21T22:34:41.969Z,101055.25
2023-04-21T22:37:44.554Z,101044.59
2023-04-21T22:40:47.886Z,101047.78
2023-04-21T22:43:50.489Z,101048.34
2023-04-21T22:46:53.186Z,101042.53
2023-04-21T22:49:57.191Z,101048.34
2023-04-21T22:52:59.789Z,101051.59
2023-04-21T22:56:02.529Z,101051.13
2023-04-21T22:59:05.332Z,101052.72
2023-04-21T23:02:08.144Z,101040.59
2023-04-21T23:05:12.334Z,101037.41
2023-04-21T23:08:14.956Z,101033.28
2023-04-21T23:11:17.582Z,101033.06
2023-04-21T23:14:20.236Z,101026.69
2023-04-21T23:17:22.869Z,101022.31
2023-04-21T23:20:26.935Z,101026.31
2023-04-21T23:23:29.753Z,101022.78
2023-04-21T23:26:32.416Z,101010.06
2023-04-21T23:29:35.367Z,101017.47
2023-04-21T23:32:38.053Z,101018.44
2023-04-21T23:35:42.072Z,101018.16
2023-04-21T23:38:44.653Z,101015.13
2023-04-21T23:41:47.271Z,100995.03
2023-04-21T23:44:49.838Z,101003.53
2023-04-21T23:47:52.427Z,101000.47
2023-04-21T23:50:56.475Z,100992.59
2023-04-21T23:53:59.057Z,101004.78
2023-04-21T23:57:02.339Z,100987.72
